WEATHER DATA

YESTERDAY
Time Temp. Dewp. Hum. Bar. 1h Prec. 24h Prec.
00:01 5.4 5 97 1007.4 0.3368 0.0000
00:11 5.4 5 97 1007.4 0.1684 0.0000
00:21 5.4 5 97 1007.4 0.1122 0.0000
00:31 5.4 5.1 98 1007.4 0.0561 0.0000
00:41 5.3 4.9 97 1007.4 0.0000 0.0000
00:52 5.2 4.8 97 1007.4 0.0000 0.0000
01:01 5.1 4.8 98 1007.5 0.0000 0.0000
01:11 5.2 4.9 98 1007.4 0.0561 0.1000
01:21 5.1 4.8 98 1007.3 0.0561 0.1000
01:32 5 4.6 97 1007.3 0.0561 0.1000
01:42 5 4.7 98 1007.4 0.0561 0.1000
01:51 4.9 4.6 98 1007.2 0.0561 0.1000
02:02 4.9 4.6 98 1007.2 0.0561 0.1000
02:12 4.9 4.6 98 1007.2 0.0000 0.1000
02:22 4.9 4.6 98 1007.1 0.0000 0.1000
02:32 4.9 4.6 98 1007.1 0.0000 0.1000
02:42 5 4.7 98 1007.2 0.0000 0.1000
02:52 5 4.7 98 1007.2 0.0000 0.1000
03:02 5 4.6 97 1007.3 0.0000 0.1000
03:12 4.9 4.5 97 1007.4 0.0000 0.1000
03:22 4.9 4.5 97 1007.4 0.0000 0.1000
03:32 4.8 4.2 96 1007.4 0.0000 0.1000
03:42 4.7 4.1 96 1007.4 0.0561 0.1000
04:02 4.7 4.3 97 1007.4 0.1122 0.2000
04:12 4.7 4.3 97 1007.5 0.1122 0.2000
04:23 4.7 4.3 97 1007.3 0.2806 0.3000
04:32 4.7 4.3 97 1007.4 0.3368 0.4000
04:42 4.7 4.1 96 1007.4 0.3368 0.4000
04:53 4.6 4 96 1007.5 0.3368 0.4000
05:03 4.6 4.2 97 1007.6 0.3368 0.5000
05:12 4.6 4.2 97 1007.7 0.3368 0.5000
05:22 4.6 4 96 1007.7 0.1684 0.5000
05:33 4.4 3.8 96 1007.6 0.1122 0.5000
05:43 4.3 3.7 96 1007.7 0.0561 0.5000
05:52 4.1 3.5 96 1007.8 0.0561 0.5000
06:03 4.1 3.5 96 1007.9 0.0000 0.5000
06:13 4 3.4 96 1008 0.0000 0.5000
06:23 4 3.4 96 1008 0.0000 0.5000
06:34 4 3.6 97 1008.2 0.0000 0.5000
06:44 4 3.6 97 1008.3 0.0000 0.5000
06:55 4.1 3.7 97 1008.5 0.0000 0.5000
07:04 4.1 3.7 97 1008.7 0.0000 0.5000
07:14 4 3.6 97 1008.7 0.0000 0.5000
07:25 4 3.6 97 1008.8 0.0000 0.5000
07:35 4.1 3.7 97 1008.9 0.0000 0.5000
07:44 4.1 3.7 97 1009.1 0.0000 0.5000
07:54 4.1 3.5 96 1009.4 0.0000 0.5000
08:05 4 3.3 95 1009.6 0.0000 0.5000
08:07 3.9 3.2 95 1009.7 0.0000 0.5000
08:17 3.8 3.1 95 1009.9 0.0000 0.5000
08:27 3.7 2.8 94 1010 0.0000 0.5000
08:37 3.7 2.8 94 1010.2 0.0000 0.5000
08:47 3.5 2.6 94 1010.4 0.0000 0.5000
08:57 3.5 2.6 94 1010.6 0.0000 0.5000
09:07 3.4 2.5 94 1010.8 0.0000 0.5000
09:17 3.5 2.8 95 1010.9 0.0000 0.5000
09:28 3.7 3 95 1011.1 0.0000 0.5000
09:37 3.9 3.2 95 1011.2 0.0000 0.5000
09:47 4.1 3.4 95 1011.4 0.0000 0.5000
09:58 4.4 3.5 94 1011.5 0.0000 0.5000
10:08 4.5 3.6 94 1011.7 0.0000 0.5000
10:17 4.7 3.7 93 1011.8 0.0000 0.5000
10:27 4.9 3.9 93 1011.9 0.0000 0.5000
10:38 5.1 4.1 93 1012 0.0000 0.5000
10:48 5.4 4.2 92 1012.1 0.0000 0.5000
10:57 5.7 4.5 92 1012.3 0.0000 0.5000
11:08 5.8 4.3 90 1012.4 0.0000 0.5000
11:18 6 4.5 90 1012.6 0.0000 0.5000
11:28 6.2 4.5 89 1012.7 0.0000 0.5000
11:38 6.4 4.6 88 1012.7 0.0000 0.5000
11:48 6.6 4.6 87 1012.8 0.0000 0.5000
11:58 6.7 4.5 86 1012.9 0.0000 0.5000
12:08 6.8 4.5 85 1012.8 0.0000 0.5000
12:18 7 4.5 84 1012.9 0.0000 0.5000
12:28 7.1 4.6 84 1012.8 0.0000 0.5000
12:43 7.1 4.2 82 1012.8 0.0000 0.5000
12:54 7.1 4.2 82 1012.8 0.0000 0.5000
13:04 7.1 4.1 81 1012.8 0.0000 0.5000
13:13 7 4 81 1012.9 0.0000 0.5000
13:23 6.7 3.5 80 1012.9 0.0000 0.5000
13:34 6.8 3.6 80 1012.9 0.0000 0.5000
13:44 6.8 3.6 80 1012.9 0.0000 0.5000
13:53 6.9 3.7 80 1012.9 0.0000 0.5000
14:04 7.4 4.2 80 1012.7 0.0000 0.5000
14:14 7.3 3.7 78 1013.2 0.0561 0.6000
14:24 6.3 3.1 80 1013.7 0.5052 1.0000
14:29 6 3.2 82 1013.8 0.5613 1.1000
14:40 5.7 3.4 85 1013.7 0.6736 1.2000
14:50 5.7 3.7 87 1013.8 0.6736 1.2000
14:59 5.5 3.7 88 1013.9 0.7297 1.2000
15:09 5.4 3.6 88 1014.1 0.6736 1.2000
15:20 5.5 3.8 89 1014.2 0.2245 1.2000
15:30 5.6 4.1 90 1014.1 0.1122 1.2000
15:39 5.6 3.9 89 1014.3 0.0561 1.2000
15:50 5.5 3.7 88 1014.5 0.0561 1.2000
16:00 5.4 3.4 87 1014.7 0.0000 1.2000
16:10 5.4 3.1 85 1014.8 0.0000 1.2000
16:20 5.1 2.5 83 1015 0.0000 1.2000
16:30 5 2.4 83 1015 0.0000 1.2000
16:40 5 2.4 83 1015.2 0.0000 1.2000
16:50 4.8 2 82 1015.3 0.0000 1.2000
17:00 4.5 1 78 1015.5 0.0000 1.2000
17:10 4.1 -0.1 74 1015.8 0.0000 1.2000
17:17 3.9 -0.3 74 1015.9 0.0000 1.2000
17:26 3.7 -0.3 75 1016 0.0000 1.2000
17:36 3.5 -0.3 76 1016.1 0.0000 1.2000
17:47 3.3 -0.3 77 1016.2 0.0000 1.2000
17:59 2.9 -0.5 78 1016.4 0.0000 1.2000
18:08 2.7 -0.7 78 1016.6 0.0000 1.2000
18:18 2.4 -0.8 79 1016.8 0.0000 1.2000
18:29 2.1 -0.9 80 1017 0.0000 1.2000
18:39 1.9 -0.9 81 1017 0.0000 1.2000
18:48 1.8 -0.8 82 1017.1 0.0000 1.2000
18:58 1.5 -1.1 82 1017.2 0.0000 1.2000
19:09 1.4 -1.2 82 1017.5 0.0000 1.2000
19:19 1.2 -1.2 83 1017.7 0.0000 1.2000
19:28 1.1 -1.3 83 1017.5 0.0000 1.2000
19:39 1 -1.2 84 1017.7 0.0000 1.2000
19:49 0.9 -1.3 84 1017.8 0.0000 1.2000
19:59 0.7 -1.3 85 1017.9 0.0000 1.2000
20:09 0.7 -1.3 85 1018 0.0000 1.2000
20:19 0.6 -1.4 85 1018.1 0.0000 1.2000
20:29 0.4 -1.5 86 1018.2 0.0000 1.2000
20:39 0.3 -1.6 86 1018.3 0.0000 1.2000
20:49 0.2 -1.6 86 1018.3 0.0000 1.2000
20:59 0 -1.7 87 1018.4 0.0000 1.2000
21:09 -0.1 -1.8 87 1018.3 0.0000 1.2000
21:19 -0.2 -1.7 88 1018.4 0.0000 1.2000
21:29 -0.3 -1.8 88 1018.4 0.0000 1.2000
21:39 -0.4 -1.9 88 1018.7 0.0000 1.2000
21:49 -0.4 -1.8 89 1018.8 0.0000 1.2000
22:00 -0.5 -1.9 89 1018.9 0.0000 1.2000
22:09 -0.6 -2 89 1018.8 0.0000 1.2000
22:19 -0.6 -2 89 1018.8 0.0000 1.2000
22:30 -0.7 -2.1 89 1018.9 0.0000 1.2000
22:40 -0.7 -2 90 1018.8 0.0000 1.2000
22:49 -0.7 -2 90 1018.8 0.0000 1.2000
22:59 -0.8 -2.1 90 1018.8 0.0000 1.2000
23:10 -0.8 -2.1 90 1018.5 0.0000 1.2000
23:20 -0.9 -2.2 90 1018.7 0.0000 1.2000
23:29 -0.9 -2 91 1019 0.0000 1.2000
23:40 -0.9 -2 91 1019.2 0.0000 1.2000
23:50 -0.9 -2 91 1019.4 0.0000 1.2000

DAY STATISTIC

2019-01-17
TEMPERATURE
AVERAGE
3.9
HIGH
7.4
14:04
LOW
-0.9
23:20
PRESSURE
AVERAGE
1012.5
HIGH
1019.4
23:50
LOW
1007.1
02:22
DEWPOINT
AVERAGE
2.4
HIGH
5.1
00:31
LOW
-2.2
23:20
HUMIDITY
AVERAGE
90
HIGH
98
00:31
LOW
74
17:10
PRECIPITATION
RAIN HOUR
0.7
RAIN DAY
1.2
TEMPERATURE (°C)
LOW
-0.9
HIGH
7.4
AVERAGE
3.9
PRESSURE (hpa)
LOW
1007.1
HIGH
1019.4
AVERAGE
1012.5
DEVICE